createdAt,value
2023-03-02T11:18:47.449Z,62.15
2023-03-02T11:29:32.544Z,61.78
2023-03-02T11:32:18.505Z,62.98
2023-03-02T11:35:55.895Z,62.65
2023-03-02T11:38:38.531Z,58.62
2023-03-02T11:48:50.731Z,55.87
2023-03-02T11:52:01.880Z,57.91
2023-03-02T11:58:35.013Z,56.34
2023-03-02T12:04:48.459Z,57.85
2023-03-02T12:11:36.601Z,54.99
2023-03-02T12:17:33.282Z,55.90
2023-03-02T12:20:42.114Z,55.03
2023-03-02T12:23:40.143Z,54.01
2023-03-02T12:26:46.891Z,55.31
2023-03-02T12:29:29.613Z,54.92
2023-03-02T12:32:33.482Z,52.60
2023-03-02T12:38:20.345Z,51.94
2023-03-02T12:41:25.769Z,53.23
2023-03-02T12:44:22.621Z,50.16
2023-03-02T12:47:09.791Z,50.38
2023-03-02T12:50:15.390Z,49.50
2023-03-02T12:53:05.159Z,51.48
2023-03-02T12:56:17.157Z,50.63
2023-03-02T13:08:19.384Z,51.94
2023-03-02T13:11:00.756Z,53.11
2023-03-02T13:13:45.513Z,53.28
2023-03-02T13:16:37.105Z,51.39
2023-03-02T13:19:39.610Z,50.81
2023-03-02T13:22:13.180Z,50.60
2023-03-02T13:29:03.034Z,50.91
2023-03-02T13:31:42.156Z,51.70
2023-03-02T13:34:38.814Z,52.30
2023-03-02T13:37:22.366Z,51.44
2023-03-02T13:40:06.712Z,51.48
2023-03-02T13:43:00.471Z,51.21
2023-03-02T13:45:39.451Z,49.47
2023-03-02T13:48:28.149Z,50.94
2023-03-02T13:51:13.831Z,51.43
2023-03-02T13:54:27.367Z,52.03
2023-03-02T13:57:07.510Z,52.58
2023-03-02T14:00:19.999Z,52.22
2023-03-02T14:03:02.331Z,51.72
2023-03-02T14:05:41.009Z,51.22
2023-03-02T14:08:21.284Z,50.97
2023-03-02T14:11:12.546Z,51.36
2023-03-02T14:14:02.543Z,50.35
2023-03-02T14:16:30.647Z,50.50
2023-03-02T14:19:06.700Z,51.46
2023-03-02T14:21:46.597Z,50.73
2023-03-02T14:24:25.340Z,50.22
2023-03-02T14:30:01.305Z,50.67
2023-03-02T14:32:31.854Z,49.92
2023-03-02T14:35:07.708Z,50.27
2023-03-02T14:37:38.723Z,51.04
2023-03-02T14:40:21.801Z,50.50
2023-03-02T14:42:56.479Z,50.49
2023-03-02T14:48:14.330Z,51.26
2023-03-02T14:51:01.092Z,51.74
2023-03-02T14:53:41.677Z,52.63
2023-03-02T14:56:27.869Z,52.90
2023-03-02T14:59:04.250Z,53.01
2023-03-02T15:01:57.750Z,52.25
2023-03-02T15:04:28.261Z,53.56
2023-03-02T15:07:14.158Z,52.95
2023-03-02T15:09:51.079Z,53.61
2023-03-02T15:12:29.834Z,53.59
2023-03-02T15:16:02.043Z,53.41
2023-03-02T15:17:56.620Z,53.83
2023-03-02T15:20:32.724Z,54.39
2023-03-02T15:23:11.109Z,54.63
2023-03-02T15:25:46.842Z,54.79
2023-03-02T15:28:21.538Z,54.50
2023-03-02T15:30:51.040Z,54.20
2023-03-02T15:33:29.559Z,54.82
2023-03-02T15:36:12.224Z,54.17
2023-03-02T15:38:46.638Z,54.73
2023-03-02T15:41:18.936Z,54.58
2023-03-02T15:44:33.705Z,54.82
2023-03-02T15:47:09.580Z,54.80
2023-03-02T15:50:10.257Z,54.82
2023-03-02T15:52:51.384Z,54.89
2023-03-02T15:55:40.756Z,55.23
2023-03-02T16:02:06.611Z,57.98
2023-03-02T16:04:41.788Z,59.50
2023-03-02T16:10:51.953Z,61.67
2023-03-02T16:13:33.102Z,62.49
2023-03-02T16:16:10.417Z,63.55
2023-03-02T16:19:19.550Z,63.87
2023-03-02T16:21:58.231Z,64.85
2023-03-02T16:24:28.775Z,65.32
2023-03-02T16:30:32.493Z,65.96
2023-03-02T16:35:59.452Z,68.23
2023-03-02T16:38:39.750Z,68.65
2023-03-02T16:41:20.566Z,70.58
2023-03-02T16:44:09.240Z,69.91
2023-03-02T16:52:25.345Z,71.45
2023-03-02T17:01:59.437Z,72.92
2023-03-02T17:04:36.576Z,73.23
2023-03-02T17:07:26.579Z,73.39
2023-03-02T17:10:07.453Z,73.53
2023-03-02T17:12:47.929Z,73.22
2023-03-02T17:15:20.706Z,73.64
2023-03-02T17:18:36.275Z,73.76
2023-03-02T17:25:23.581Z,75.34
2023-03-02T17:48:31.285Z,76.92
2023-03-02T17:51:15.778Z,77.01
2023-03-02T18:06:28.128Z,78.58
2023-03-02T18:08:56.288Z,78.50
2023-03-02T18:15:39.115Z,77.99
2023-03-02T18:18:46.058Z,78.05
2023-03-02T18:28:08.367Z,79.58
2023-03-02T18:30:59.461Z,79.76
2023-03-02T18:40:54.280Z,79.27
2023-03-02T18:44:21.910Z,78.93
2023-03-02T19:53:38.246Z,83.91
2023-03-02T22:38:37.066Z,85.15
